Time;durP1;ratioP1;P1;durP2;ratioP2;P2;SDS_P1;SDS_P2;PMS_P1;PMS_P2;Temp;Humidity;BMP_temperature;BMP_pressure;BME280_temperature;BME280_humidity;BME280_pressure;Samples;Min_cycle;Max_cycle;Signal;HPM_P1;HPM_P2
2023/04/28 00:00:26;;;;;;;;;3.33;3.33;;;;;17.37;66.72;100057.13;5078655;27;45300;-73
2023/04/28 00:02:52;;;;;;;;;3.00;3.00;;;;;17.33;67.36;100058.03;5079274;27;45290;-74
2023/04/28 00:05:18;;;;;;;;;3.00;3.00;;;;;17.33;66.93;100067.69;5078842;28;45287;-74
2023/04/28 00:07:44;;;;;;;;;3.00;3.00;;;;;17.25;67.00;100059.84;5078945;27;45460;-80
2023/04/28 00:10:11;;;;;;;;;5.00;3.00;;;;;17.21;67.09;100048.41;5078326;27;45282;-74
2023/04/28 00:12:36;;;;;;;;;3.33;3.33;;;;;17.27;67.27;100047.50;5086118;27;45651;-77
2023/04/28 00:15:02;;;;;;;;;2.00;2.00;;;;;17.21;67.48;100031.66;5085409;27;45608;-72
2023/04/28 00:17:28;;;;;;;;;3.33;2.67;;;;;16.85;68.23;99981.72;5077190;28;45661;-74
2023/04/28 00:19:53;;;;;;;;;4.00;3.00;;;;;17.28;68.06;100039.53;5078449;27;45440;-73
2023/04/28 00:22:19;;;;;;;;;3.00;2.67;;;;;17.37;67.73;100050.94;5078782;28;45932;-73
2023/04/28 00:24:45;;;;;;;;;2.67;2.67;;;;;17.27;67.47;100021.09;5078454;27;46312;-73
2023/04/28 00:27:10;;;;;;;;;3.67;3.67;;;;;17.29;67.00;100035.16;5078178;27;45462;-72
2023/04/28 00:29:36;;;;;;;;;2.33;2.33;;;;;17.33;66.55;100038.63;5078265;28;45419;-72
2023/04/28 00:32:02;;;;;;;;;2.00;2.00;;;;;17.30;66.11;100036.91;5078511;28;45280;-70
2023/04/28 00:34:28;;;;;;;;;2.33;2.33;;;;;17.30;65.77;100045.69;5076918;28;46540;-73
2023/04/28 00:36:54;;;;;;;;;2.00;2.00;;;;;17.31;65.51;100051.88;5078601;27;45483;-73
2023/04/28 00:39:21;;;;;;;;;2.00;2.00;;;;;17.25;65.21;100052.78;5077827;27;45588;-74
2023/04/28 00:41:47;;;;;;;;;2.00;2.00;;;;;17.06;65.26;100032.63;5078811;27;45477;-78
2023/04/28 00:44:13;;;;;;;;;1.00;1.00;;;;;16.90;65.66;100000.16;5078130;27;45380;-77
2023/04/28 00:46:39;;;;;;;;;1.67;1.67;;;;;17.12;65.94;100029.09;5084941;27;45392;-74
2023/04/28 00:49:05;;;;;;;;;3.67;3.00;;;;;17.15;66.72;100040.53;5085631;27;45360;-74
2023/04/28 00:51:32;;;;;;;;;2.67;2.67;;;;;16.94;67.23;100014.22;5076544;28;45352;-73
2023/04/28 00:53:58;;;;;;;;;2.00;2.00;;;;;16.79;67.07;100002.84;5078042;27;45510;-74
2023/04/28 00:56:27;;;;;;;;;3.33;2.33;;;;;16.87;68.06;100024.81;5076472;28;45357;-74
2023/04/28 00:58:52;;;;;;;;;3.00;3.00;;;;;16.87;67.64;100018.63;5077660;27;45544;-73
2023/04/28 01:01:18;;;;;;;;;2.67;2.33;;;;;16.78;67.42;100001.06;5093529;27;45569;-73
2023/04/28 01:03:44;;;;;;;;;3.00;3.00;;;;;16.82;67.40;100004.59;5077795;28;46209;-80
2023/04/28 01:06:11;;;;;;;;;3.00;3.00;;;;;16.89;67.48;100006.31;5076447;28;45561;-74
2023/04/28 01:08:37;;;;;;;;;3.00;2.33;;;;;16.98;67.34;100029.16;5076667;27;46277;-76
2023/04/28 01:11:03;;;;;;;;;3.00;2.00;;;;;16.84;67.97;99998.44;5077868;27;45458;-76
2023/04/28 01:13:29;;;;;;;;;2.33;2.33;;;;;16.78;67.66;100006.34;5077689;27;45503;-83
2023/04/28 01:15:55;;;;;;;;;2.67;2.67;;;;;16.79;67.59;100009.84;5076024;28;45578;-73
2023/04/28 01:18:21;;;;;;;;;4.00;4.00;;;;;16.70;67.59;99987.03;5077642;27;45437;-73
2023/04/28 01:20:47;;;;;;;;;3.00;2.67;;;;;16.81;67.49;99995.81;5077873;27;45752;-75
2023/04/28 01:23:14;;;;;;;;;3.00;3.00;;;;;16.86;67.41;100003.69;5075830;28;46119;-81
2023/04/28 01:25:42;;;;;;;;;4.00;4.00;;;;;16.89;67.34;100006.31;5077522;27;45416;-76
2023/04/28 01:28:08;;;;;;;;;3.00;3.00;;;;;16.73;67.64;99970.31;5077399;27;45441;-75
2023/04/28 01:30:34;;;;;;;;;3.00;2.00;;;;;16.98;67.30;100010.69;5077831;27;45389;-73
2023/04/28 01:33:02;;;;;;;;;3.33;3.00;;;;;16.74;67.97;99982.63;5077051;27;45615;-73
2023/04/28 01:35:27;;;;;;;;;3.33;3.33;;;;;16.70;67.96;99992.31;5074399;28;45548;-75
2023/04/28 01:37:53;;;;;;;;;3.00;3.00;;;;;16.68;68.11;99986.16;5076045;28;45513;-73
2023/04/28 01:40:18;;;;;;;;;3.00;3.00;;;;;16.70;68.02;99997.59;5076976;28;45467;-75
2023/04/28 01:42:47;;;;;;;;;3.00;2.00;;;;;16.74;67.71;99999.31;5077909;27;46105;-73
2023/04/28 01:45:12;;;;;;;;;3.00;2.67;;;;;16.78;67.61;99995.78;5076078;28;45279;-74
2023/04/28 01:47:38;;;;;;;;;3.33;3.00;;;;;16.75;67.75;99990.53;5076666;27;45360;-72
2023/04/28 01:50:05;;;;;;;;;3.00;3.00;;;;;16.79;67.51;99994.00;5075947;28;45630;-73
2023/04/28 01:52:30;;;;;;;;;3.00;3.00;;;;;16.68;67.62;99981.75;5076607;27;45472;-73
2023/04/28 01:54:55;;;;;;;;;3.00;3.00;;;;;16.71;67.58;99988.78;5083780;27;45895;-71
2023/04/28 01:57:21;;;;;;;;;2.33;2.33;;;;;16.69;67.50;99986.16;5077017;28;45313;-72
2023/04/28 01:59:47;;;;;;;;;3.00;2.00;;;;;16.72;67.65;99989.66;5076408;28;45798;-72
2023/04/28 02:02:13;;;;;;;;;3.00;3.00;;;;;16.60;67.79;99980.03;5076633;27;45461;-72
2023/04/28 02:04:38;;;;;;;;;2.67;2.67;;;;;16.55;67.59;99987.09;5076530;27;45410;-72
2023/04/28 02:07:05;;;;;;;;;2.00;2.00;;;;;16.62;67.04;99999.38;5076614;27;45359;-75
2023/04/28 02:09:31;;;;;;;;;3.00;3.00;;;;;16.10;66.70;99919.56;5077012;27;45566;-75
2023/04/28 02:11:58;;;;;;;;;2.00;2.00;;;;;16.56;66.71;99994.13;5076082;28;45329;-73
2023/04/28 02:14:24;;;;;;;;;2.33;2.00;;;;;16.67;67.50;100019.59;5074273;28;45303;-73
2023/04/28 02:16:49;;;;;;;;;3.00;3.00;;;;;16.65;67.05;100015.16;5076939;27;45290;-73
2023/04/28 02:19:15;;;;;;;;;2.33;2.33;;;;;16.68;67.56;100025.72;5078445;27;45480;-73
2023/04/28 02:21:42;;;;;;;;;4.00;4.00;;;;;16.57;67.85;100011.69;5078296;27;45418;-73
2023/04/28 02:24:07;;;;;;;;;3.67;3.33;;;;;16.63;67.95;100027.47;5077068;28;45341;-75
2023/04/28 02:26:34;;;;;;;;;3.00;3.00;;;;;16.62;68.34;100033.66;5078346;27;45243;-73
2023/04/28 02:29:00;;;;;;;;;2.00;2.00;;;;;16.64;68.21;100021.34;5078615;27;45309;-73
2023/04/28 02:31:25;;;;;;;;;3.00;3.00;;;;;16.65;68.07;100017.81;5093611;27;45565;-73
2023/04/28 02:33:51;;;;;;;;;4.00;3.67;;;;;16.64;68.10;100023.97;5077956;27;45285;-75
2023/04/28 02:36:20;;;;;;;;;4.00;3.00;;;;;16.55;68.17;100016.09;5093948;27;45362;-73
2023/04/28 02:38:46;;;;;;;;;4.00;3.00;;;;;16.63;68.33;100033.66;5078692;27;45457;-75
2023/04/28 02:41:13;;;;;;;;;5.00;2.67;;;;;16.44;68.23;100003.81;5078204;27;46246;-74
2023/04/28 02:43:40;;;;;;;;;3.00;2.00;;;;;16.56;68.36;100033.69;5078031;27;45307;-73
2023/04/28 02:46:06;;;;;;;;;2.00;2.00;;;;;16.62;68.38;100041.56;5090563;27;45522;-73
2023/04/28 02:48:34;;;;;;;;;2.00;2.00;;;;;16.55;68.23;100029.28;5075988;27;45470;-83
2023/04/28 02:51:00;;;;;;;;;2.67;2.67;;;;;16.61;68.25;100031.88;5077079;28;45388;-73
2023/04/28 02:53:26;;;;;;;;;4.00;4.00;;;;;16.67;68.30;100034.50;5076120;27;46025;-73
2023/04/28 02:55:52;;;;;;;;;2.67;2.00;;;;;16.73;68.22;100046.78;5076554;28;45346;-75
2023/04/28 02:58:17;;;;;;;;;4.00;3.00;;;;;16.72;67.69;100035.38;5077973;28;45459;-72
2023/04/28 03:00:43;;;;;;;;;2.33;2.33;;;;;16.64;67.82;100018.72;5077427;27;47049;-73
2023/04/28 03:03:08;;;;;;;;;3.00;2.00;;;;;16.69;67.66;100017.81;5075995;28;45321;-73
2023/04/28 03:05:34;;;;;;;;;3.00;2.00;;;;;16.72;67.29;100019.56;5077316;28;45383;-76
2023/04/28 03:08:00;;;;;;;;;4.33;3.00;;;;;16.71;67.64;100017.78;5075974;28;45556;-79
2023/04/28 03:10:25;;;;;;;;;2.00;2.00;;;;;16.76;67.64;100017.78;5077259;28;45494;-72
2023/04/28 03:12:51;;;;;;;;;3.00;3.00;;;;;16.75;67.56;100011.66;5076566;28;45635;-72
2023/04/28 03:15:16;;;;;;;;;2.67;2.67;;;;;16.82;67.64;100016.03;5077626;28;45256;-75
2023/04/28 03:17:43;;;;;;;;;3.00;3.00;;;;;16.89;67.79;100023.03;5077775;28;45487;-74
2023/04/28 03:20:09;;;;;;;;;3.00;2.33;;;;;16.76;67.74;100004.59;5077232;28;45333;-75
2023/04/28 03:22:35;;;;;;;;;3.00;3.00;;;;;16.84;67.91;100018.66;5077300;28;45321;-75
2023/04/28 03:25:01;;;;;;;;;2.33;2.00;;;;;16.71;68.51;99996.69;5076115;28;45453;-75
2023/04/28 03:27:27;;;;;;;;;4.33;3.00;;;;;16.72;68.12;100011.63;5076201;28;45519;-75
2023/04/28 03:29:52;;;;;;;;;3.00;3.00;;;;;16.63;68.48;100001.13;5077499;28;45472;-74
2023/04/28 03:32:18;;;;;;;;;3.00;3.00;;;;;16.64;68.28;100005.53;5076886;27;45368;-73
2023/04/28 03:34:43;;;;;;;;;4.33;4.00;;;;;16.76;68.49;100020.44;5076033;28;45464;-73
2023/04/28 03:37:09;;;;;;;;;5.67;5.00;;;;;16.71;68.36;100004.59;5075918;28;45385;-73
2023/04/28 03:39:35;;;;;;;;;6.75;6.75;;;;;16.77;67.96;100008.97;5075673;28;45507;-73
2023/04/28 03:42:01;;;;;;;;;5.00;4.67;;;;;16.81;67.98;100019.56;5077064;28;45302;-73
2023/04/28 03:44:26;;;;;;;;;4.33;4.33;;;;;16.73;68.09;100012.50;5077390;28;45299;-72
2023/04/28 03:46:52;;;;;;;;;4.33;4.00;;;;;16.72;68.49;100024.81;5077672;28;45393;-72
2023/04/28 03:49:17;;;;;;;;;4.67;4.67;;;;;16.62;68.85;100020.47;5075637;28;47505;-73
2023/04/28 03:51:43;;;;;;;;;3.33;3.33;;;;;16.53;69.36;100002.03;5076877;27;45330;-74
2023/04/28 03:54:08;;;;;;;;;3.00;3.00;;;;;16.59;68.75;99999.38;5075747;28;45463;-73
2023/04/28 03:56:34;;;;;;;;;4.00;4.00;;;;;16.60;69.28;99998.50;5076967;28;45524;-74
2023/04/28 03:58:59;;;;;;;;;4.00;4.00;;;;;16.53;69.07;100000.25;5076850;28;45834;-80
2023/04/28 04:01:25;;;;;;;;;4.00;3.33;;;;;16.59;68.77;100004.66;5076741;28;45441;-72
2023/04/28 04:03:50;;;;;;;;;3.67;3.67;;;;;16.72;69.22;100016.03;5077477;28;45513;-73
2023/04/28 04:06:16;;;;;;;;;3.00;2.33;;;;;16.78;68.84;100022.16;5077354;28;45438;-79
2023/04/28 04:08:42;;;;;;;;;4.00;3.00;;;;;16.70;69.44;100013.41;5075311;28;45626;-73
2023/04/28 04:11:08;;;;;;;;;4.00;3.00;;;;;16.59;69.83;100007.28;5076936;28;45351;-84
2023/04/28 04:13:33;;;;;;;;;5.00;4.00;;;;;16.56;70.05;100007.31;5076810;28;45507;-73
2023/04/28 04:15:59;;;;;;;;;3.00;3.00;;;;;16.70;69.98;100037.16;5076845;28;45337;-75
2023/04/28 04:18:26;;;;;;;;;3.00;3.00;;;;;16.74;69.66;100052.06;5076908;28;45556;-73
2023/04/28 04:20:54;;;;;;;;;3.00;3.00;;;;;16.74;69.54;100041.53;5077133;28;45203;-74
2023/04/28 04:23:20;;;;;;;;;4.00;4.00;;;;;16.71;69.64;100046.78;5076802;27;45417;-77
2023/04/28 04:25:46;;;;;;;;;4.00;4.00;;;;;16.72;69.37;100037.16;5076835;27;45413;-74
2023/04/28 04:28:12;;;;;;;;;4.67;4.00;;;;;16.72;69.53;100038.00;5074872;28;45433;-74
2023/04/28 04:30:37;;;;;;;;;3.33;3.00;;;;;16.69;69.72;100043.28;5076294;27;45394;-74
2023/04/28 04:33:03;;;;;;;;;3.00;3.00;;;;;16.47;69.76;100014.38;5076524;28;45516;-73
2023/04/28 04:35:28;;;;;;;;;2.00;2.00;;;;;16.17;69.64;99980.16;5080217;28;45449;-76
2023/04/28 04:37:54;;;;;;;;;4.00;4.00;;;;;16.54;69.58;100051.25;5079218;28;46825;-81
2023/04/28 04:40:20;;;;;;;;;3.00;3.00;;;;;16.43;69.83;100041.63;5078637;27;45271;-84
2023/04/28 04:42:45;;;;;;;;;7.33;6.33;;;;;16.35;70.33;100043.38;5080439;28;45414;-84
2023/04/28 04:45:11;;;;;;;;;3.67;3.67;;;;;16.35;70.77;100059.19;5079273;28;45554;-83
2023/04/28 04:47:37;;;;;;;;;3.67;3.00;;;;;16.25;70.09;100042.53;5078890;28;45417;-84
2023/04/28 04:50:02;;;;;;;;;2.67;2.67;;;;;16.17;70.66;100032.84;5096040;27;45665;-85
2023/04/28 04:52:28;;;;;;;;;3.00;3.00;;;;;16.14;70.90;100030.25;5080226;28;45570;-73
2023/04/28 04:54:55;;;;;;;;;3.00;3.00;;;;;16.24;70.75;100051.31;5079442;28;45250;-80
2023/04/28 04:57:20;;;;;;;;;3.00;2.00;;;;;16.24;71.14;100048.66;5080454;28;45502;-84
2023/04/28 04:59:46;;;;;;;;;3.33;3.00;;;;;16.14;71.28;100038.16;5095184;27;45419;-84
2023/04/28 05:02:12;;;;;;;;;5.00;4.00;;;;;16.12;71.28;100043.41;5080132;27;45467;-84
2023/04/28 05:04:37;;;;;;;;;3.00;3.00;;;;;16.07;71.68;100040.75;5095268;27;45528;-81
2023/04/28 05:07:03;;;;;;;;;4.00;3.00;;;;;16.15;71.57;100053.94;5088946;27;45336;-84
2023/04/28 05:09:30;;;;;;;;;4.33;4.33;;;;;16.09;71.32;100036.41;5091423;27;45385;-83
2023/04/28 05:11:57;;;;;;;;;6.00;5.00;;;;;16.12;71.09;100043.41;5078328;27;45299;-83
2023/04/28 05:14:23;;;;;;;;;5.00;4.33;;;;;16.20;71.13;100049.56;5079604;27;45481;-84
2023/04/28 05:16:48;;;;;;;;;11.50;11.25;;;;;16.19;71.02;100042.50;5078641;28;45472;-83
2023/04/28 05:19:15;;;;;;;;;6.25;6.00;;;;;16.23;70.74;100048.66;5078199;28;45385;-83
2023/04/28 05:21:41;;;;;;;;;3.00;3.00;;;;;16.32;70.57;100047.78;5078511;27;45607;-84
2023/04/28 05:24:06;;;;;;;;;3.33;3.33;;;;;16.25;70.84;100036.34;5078322;28;45425;-82
2023/04/28 05:26:32;;;;;;;;;7.00;6.33;;;;;16.21;71.35;100034.59;5079392;28;46254;-85
2023/04/28 05:29:01;;;;;;;;;5.00;5.00;;;;;16.34;71.09;100052.16;5078688;28;45301;-84
2023/04/28 05:31:26;;;;;;;;;5.00;5.00;;;;;16.36;70.65;100042.50;5078388;28;45377;-81
2023/04/28 05:33:52;;;;;;;;;6.00;5.00;;;;;16.50;70.32;100060.94;5079024;28;45389;-73
2023/04/28 05:36:17;;;;;;;;;9.00;8.00;;;;;16.49;70.34;100051.25;5077857;28;45550;-83
2023/04/28 05:38:43;;;;;;;;;7.00;7.00;;;;;16.52;70.38;100055.66;5077256;28;45470;-76
2023/04/28 05:41:09;;;;;;;;;9.00;8.00;;;;;16.66;70.23;100080.22;5076089;28;45528;-77
2023/04/28 05:43:35;;;;;;;;;7.00;7.00;;;;;16.67;70.25;100066.16;5077507;28;45455;-78
2023/04/28 05:46:00;;;;;;;;;8.33;8.33;;;;;16.78;69.85;100059.09;5074633;28;46791;-77
2023/04/28 05:48:26;;;;;;;;;6.67;6.67;;;;;16.79;68.97;100045.03;5076332;28;45587;-80
2023/04/28 05:50:52;;;;;;;;;8.00;7.67;;;;;17.05;68.97;100066.06;5077371;28;45338;-72
2023/04/28 05:53:18;;;;;;;;;7.00;7.00;;;;;17.13;68.32;100051.94;5077713;28;45457;-76
2023/04/28 05:55:44;;;;;;;;;6.33;5.33;;;;;17.40;67.91;100077.34;5077569;28;46367;-84
2023/04/28 05:58:10;;;;;;;;;11.33;11.33;;;;;17.37;67.74;100027.19;5092794;27;45508;-84
2023/04/28 06:00:36;;;;;;;;;7.00;6.00;;;;;17.64;67.41;100048.13;5076408;28;45665;-85
2023/04/28 06:03:01;;;;;;;;;5.67;5.67;;;;;17.75;66.90;100049.84;5077809;28;45383;-84
2023/04/28 06:05:27;;;;;;;;;12.00;9.00;;;;;17.79;66.52;100022.50;5078090;27;45574;-73
2023/04/28 06:07:54;;;;;;;;;7.67;6.33;;;;;17.97;66.18;100027.66;5077953;27;45367;-83
2023/04/28 06:10:21;;;;;;;;;5.00;4.33;;;;;18.28;66.09;100054.72;5077177;28;45483;-83
2023/04/28 06:12:47;;;;;;;;;5.00;4.67;;;;;18.47;65.47;100050.09;5076980;28;45514;-83
2023/04/28 06:15:12;;;;;;;;;3.67;3.67;;;;;18.72;65.01;100036.63;5078024;27;45750;-74
2023/04/28 06:17:38;;;;;;;;;7.67;6.33;;;;;19.39;63.86;100052.56;5078196;28;45483;-74
2023/04/28 06:20:05;;;;;;;;;6.00;5.00;;;;;20.59;60.48;100038.25;5076918;28;45463;-86
2023/04/28 06:22:34;;;;;;;;;4.67;4.33;;;;;21.38;58.52;100032.16;5077373;28;45577;-73
2023/04/28 06:24:59;;;;;;;;;5.00;4.00;;;;;21.57;57.29;100035.31;5077102;28;45470;-74
2023/04/28 06:27:25;;;;;;;;;4.00;4.00;;;;;21.70;57.40;100009.28;5077825;27;45439;-85
2023/04/28 06:29:51;;;;;;;;;2.33;2.00;;;;;22.01;55.25;100035.13;5078637;27;45232;-73
2023/04/28 06:32:16;;;;;;;;;4.33;4.33;;;;;21.92;55.52;100028.25;5078391;28;45531;-73
2023/04/28 06:34:42;;;;;;;;;6.00;6.00;;;;;22.01;56.27;100006.75;5078007;27;46383;-75
2023/04/28 06:37:07;;;;;;;;;4.33;4.33;;;;;22.30;55.81;100038.84;5076760;28;45436;-86
2023/04/28 06:39:33;;;;;;;;;8.00;7.00;;;;;22.64;54.93;100022.84;5078047;27;45280;-73
2023/04/28 06:42:00;;;;;;;;;6.00;6.00;;;;;23.61;52.70;100025.28;5078624;27;45424;-84
2023/04/28 06:44:26;;;;;;;;;7.67;6.00;;;;;24.57;51.38;100029.22;5076644;27;46704;-81
2023/04/28 06:46:51;;;;;;;;;5.00;5.00;;;;;25.19;49.30;100001.06;5076623;28;45524;-86
2023/04/28 06:49:17;;;;;;;;;5.33;5.00;;;;;25.17;48.49;99986.88;5076644;27;45495;-83
2023/04/28 06:51:42;;;;;;;;;6.33;5.67;;;;;25.50;48.30;100021.25;5081656;27;45213;-81
2023/04/28 06:54:08;;;;;;;;;5.00;5.00;;;;;25.86;47.81;100011.78;5088837;27;47516;-84
2023/04/28 06:56:34;;;;;;;;;5.33;5.00;;;;;26.09;46.85;100016.22;5083930;27;45325;-75
2023/04/28 06:59:00;;;;;;;;;5.33;5.00;;;;;26.38;45.28;100015.81;5081013;27;45396;-73
2023/04/28 07:01:26;;;;;;;;;3.00;3.00;;;;;26.76;44.59;100007.91;5077380;27;45408;-73
2023/04/28 07:03:52;;;;;;;;;6.00;6.00;;;;;26.92;45.25;100015.25;5076384;28;45405;-85
2023/04/28 07:06:19;;;;;;;;;4.33;4.33;;;;;27.47;44.33;100018.00;5076236;28;45406;-85
2023/04/28 07:08:45;;;;;;;;;5.00;5.00;;;;;27.99;43.39;100024.47;5076907;27;45308;-86
2023/04/28 07:11:10;;;;;;;;;7.00;6.00;;;;;28.53;42.77;100038.69;5076467;28;45471;-86
2023/04/28 07:13:36;;;;;;;;;5.67;5.67;;;;;28.74;41.93;100018.75;5077093;27;45294;-74
2023/04/28 07:16:03;;;;;;;;;8.00;7.33;;;;;28.76;41.68;100024.91;5076851;28;45252;-86
2023/04/28 07:18:29;;;;;;;;;7.00;6.00;;;;;29.12;40.84;100031.06;5076648;28;45350;-83
2023/04/28 07:20:55;;;;;;;;;5.33;5.33;;;;;29.75;40.93;100027.56;5076261;28;46012;-82
2023/04/28 07:23:21;;;;;;;;;5.67;5.00;;;;;30.11;37.95;100008.34;5076515;27;45657;-75
2023/04/28 07:25:46;;;;;;;;;4.33;4.00;;;;;29.92;37.99;100024.75;5074410;28;45517;-75
2023/04/28 07:28:13;;;;;;;;;5.33;5.33;;;;;30.15;36.88;100033.28;5075337;28;45538;-74
2023/04/28 07:30:39;;;;;;;;;3.67;3.00;;;;;30.31;37.07;100026.03;5072286;28;45568;-73
2023/04/28 07:33:07;;;;;;;;;4.33;4.00;;;;;30.48;37.36;100029.53;5066282;28;46086;-75
2023/04/28 07:35:32;;;;;;;;;4.00;3.33;;;;;30.87;37.53;100031.59;5067353;28;45173;-74
2023/04/28 07:37:58;;;;;;;;;5.00;5.00;;;;;31.03;37.36;100028.81;5062024;28;45331;-72
2023/04/28 07:40:24;;;;;;;;;5.00;5.00;;;;;31.80;36.02;100042.75;5065945;28;45446;-72
2023/04/28 07:42:50;;;;;;;;;6.00;5.00;;;;;31.96;36.17;100047.16;5047390;28;46079;-75
2023/04/28 07:45:16;;;;;;;;;1.67;1.33;;;;;32.42;35.16;100052.13;5064176;28;45450;-73
2023/04/28 07:47:41;;;;;;;;;3.67;2.67;;;;;32.64;35.49;100062.34;5065052;28;46085;-77
2023/04/28 07:50:07;;;;;;;;;3.33;2.67;;;;;32.74;34.14;100062.56;5067989;28;45427;-77
2023/04/28 07:52:34;;;;;;;;;4.33;4.00;;;;;33.61;34.00;100064.41;5062994;28;46194;-81
2023/04/28 07:54:59;;;;;;;;;2.67;2.67;;;;;34.08;32.71;100057.31;5066749;28;45576;-77
2023/04/28 07:57:25;;;;;;;;;2.67;2.67;;;;;34.47;32.99;100051.66;5067173;28;45491;-83
2023/04/28 07:59:51;;;;;;;;;7.67;7.67;;;;;34.89;31.24;100051.13;5046539;28;45511;-84
2023/04/28 08:02:19;;;;;;;;;5.33;5.00;;;;;35.54;31.67;100054.94;5067346;28;46600;-83
2023/04/28 08:04:46;;;;;;;;;6.00;5.00;;;;;36.28;28.70;100052.38;5064939;28;45360;-83
2023/04/28 08:07:12;;;;;;;;;4.00;3.67;;;;;36.60;28.51;100056.88;5061549;28;45453;-79
2023/04/28 08:09:40;;;;;;;;;7.00;7.00;;;;;36.71;27.92;100051.41;5067795;28;45486;-75
2023/04/28 08:12:06;;;;;;;;;3.00;3.00;;;;;36.62;28.06;100058.47;5070314;28;46263;-73
2023/04/28 08:14:31;;;;;;;;;5.33;5.33;;;;;36.67;27.68;100058.13;5049520;28;45516;-74
2023/04/28 08:16:57;;;;;;;;;5.00;4.33;;;;;36.85;27.85;100032.97;5057812;28;45512;-78
2023/04/28 08:19:23;;;;;;;;;4.00;4.00;;;;;37.69;27.47;100055.41;5079476;28;45381;-81
2023/04/28 08:21:48;;;;;;;;;10.00;9.33;;;;;38.40;26.78;100038.78;5078495;28;46467;-78
2023/04/28 08:24:14;;;;;;;;;6.67;6.67;;;;;38.82;25.57;100044.84;5059872;28;45396;-74
2023/04/28 08:26:39;;;;;;;;;5.00;4.50;;;;;38.72;25.70;100043.03;5079196;28;45458;-75
2023/04/28 08:29:05;;;;;;;;;5.67;5.00;;;;;38.22;27.33;100050.56;5061261;28;45486;-74
2023/04/28 08:31:31;;;;;;;;;5.00;5.00;;;;;38.66;26.71;100048.22;5078324;28;46674;-71
2023/04/28 08:33:57;;;;;;;;;3.67;3.67;;;;;38.35;26.49;100051.13;5079042;28;45442;-72
2023/04/28 08:36:25;;;;;;;;;3.67;3.00;;;;;38.20;26.47;100037.06;5078624;28;45363;-71
2023/04/28 08:38:51;;;;;;;;;5.33;5.33;;;;;38.34;26.56;100033.03;5078599;28;45448;-72
2023/04/28 08:41:18;;;;;;;;;8.33;7.67;;;;;38.47;25.97;100046.38;5078012;28;46766;-72
2023/04/28 08:43:44;;;;;;;;;5.33;5.00;;;;;37.84;26.41;100061.28;5078430;28;45328;-80
2023/04/28 08:46:10;;;;;;;;;6.33;6.33;;;;;37.85;26.96;100046.66;5078410;28;45387;-72
2023/04/28 08:48:40;;;;;;;;;4.67;4.33;;;;;37.84;27.20;100042.19;5079223;28;45521;-76
2023/04/28 08:51:07;;;;;;;;;7.00;7.00;;;;;38.05;26.93;100050.25;5078842;28;46273;-71
2023/04/28 08:53:37;;;;;;;;;7.67;7.33;;;;;37.72;27.07;100052.38;5059964;28;45641;-76
2023/04/28 08:56:09;;;;;;;;;9.00;8.00;;;;;37.74;27.75;100028.56;5078210;28;45433;-74
2023/04/28 08:58:36;;;;;;;;;6.33;6.33;;;;;37.80;27.11;100035.31;5078584;28;45202;-72
2023/04/28 09:01:03;;;;;;;;;6.67;5.67;;;;;37.20;28.33;100041.59;5078178;28;45448;-80
2023/04/28 09:03:30;;;;;;;;;5.33;5.33;;;;;36.91;29.16;100038.75;5078130;28;45496;-75
2023/04/28 09:05:56;;;;;;;;;7.67;7.00;;;;;36.97;29.52;100037.34;5065577;28;45535;-77
2023/04/28 09:08:21;;;;;;;;;6.00;6.00;;;;;37.67;28.63;100035.59;5040387;28;45598;-81
2023/04/28 09:10:47;;;;;;;;;8.33;8.33;;;;;38.34;28.19;100033.91;5057476;28;46223;-72
2023/04/28 09:13:24;;;;;;;;;8.33;8.00;;;;;38.58;27.55;100030.72;5058156;28;45469;-73
2023/04/28 09:15:50;;;;;;;;;8.00;7.33;;;;;38.34;27.27;100031.19;5058836;28;45473;-73
2023/04/28 09:18:16;;;;;;;;;7.00;6.67;;;;;37.85;27.45;100026.72;5040979;28;45273;-73
2023/04/28 09:20:41;;;;;;;;;8.33;7.67;;;;;37.30;27.88;100048.97;5058172;28;45707;-72
2023/04/28 09:23:18;;;;;;;;;11.00;9.00;;;;;36.96;29.05;100044.63;5058331;28;45480;-72
2023/04/28 09:26:06;;;;;;;;;9.00;9.00;;;;;36.51;28.92;100044.06;5040290;28;45529;-75
2023/04/28 09:28:33;;;;;;;;;7.00;7.00;;;;;36.38;29.36;100041.56;5058444;28;45438;-74
2023/04/28 09:30:59;;;;;;;;;29.33;26.67;;;;;36.75;28.82;100039.25;5059420;28;46053;-76
2023/04/28 09:33:25;;;;;;;;;10.67;9.33;;;;;37.32;28.29;100047.81;5077720;28;45385;-72
2023/04/28 09:35:51;;;;;;;;;6.00;6.00;;;;;37.40;28.72;100018.00;5079003;28;45484;-81
2023/04/28 09:38:18;;;;;;;;;8.67;8.00;;;;;38.08;28.00;100030.94;5078821;28;45462;-75
2023/04/28 09:40:50;;;;;;;;;9.33;8.33;;;;;38.22;27.73;100039.66;5078524;28;46510;-82
2023/04/28 09:43:30;;;;;;;;;9.00;8.00;;;;;38.26;27.18;100028.31;5078574;28;45493;-82
2023/04/28 09:46:01;;;;;;;;;8.33;8.33;;;;;38.37;27.74;100028.13;5077900;28;45905;-82
2023/04/28 09:48:27;;;;;;;;;17.33;16.00;;;;;38.72;27.15;100026.66;5078400;28;45267;-77
2023/04/28 09:50:54;;;;;;;;;10.00;9.67;;;;;38.41;27.60;100017.78;5093880;27;46905;-73
2023/04/28 09:53:22;;;;;;;;;11.00;10.67;;;;;38.57;27.28;100023.53;5077677;28;45372;-73
2023/04/28 09:55:50;;;;;;;;;10.00;9.67;;;;;38.13;27.22;100025.03;5077698;28;45327;-77
2023/04/28 09:58:19;;;;;;;;;11.33;10.33;;;;;38.11;27.65;100005.22;5059306;28;45314;-76
2023/04/28 10:00:49;;;;;;;;;9.67;9.67;;;;;37.87;28.12;100008.34;5077676;28;45511;-72
2023/04/28 10:03:15;;;;;;;;;11.00;10.00;;;;;37.50;28.74;100006.28;5077056;28;45211;-72
2023/04/28 10:05:41;;;;;;;;;8.33;8.33;;;;;37.19;29.22;100015.38;5077899;28;45226;-73
2023/04/28 10:08:07;;;;;;;;;12.33;12.00;;;;;36.90;29.73;100003.50;5078371;28;45438;-81
2023/04/28 10:10:33;;;;;;;;;12.67;11.67;;;;;37.43;29.50;100006.00;5093931;27;47964;-81
2023/04/28 10:13:00;;;;;;;;;13.33;11.33;;;;;37.53;28.98;99993.25;5093406;27;45290;-82
2023/04/28 10:15:26;;;;;;;;;14.67;13.00;;;;;37.64;29.39;99997.72;5078186;28;45329;-82
2023/04/28 10:17:53;;;;;;;;;12.00;11.33;;;;;37.98;28.77;99980.94;5078132;28;45324;-78
2023/04/28 10:20:21;;;;;;;;;11.67;11.67;;;;;37.92;29.06;99978.78;5093559;27;45376;-82
2023/04/28 10:23:20;;;;;;;;;13.00;11.33;;;;;37.83;29.11;99976.94;5077912;28;45512;-73
2023/04/28 10:25:53;;;;;;;;;9.33;9.00;;;;;38.02;29.95;99968.72;5078165;28;45449;-72
2023/04/28 10:28:19;;;;;;;;;10.00;9.33;;;;;38.13;29.12;99952.25;5077790;28;45268;-81
2023/04/28 10:31:22;;;;;;;;;12.67;12.00;;;;;38.03;29.51;99956.81;5077182;27;46031;-78
2023/04/28 10:33:48;;;;;;;;;7.33;7.33;;;;;37.99;30.33;99949.94;5077962;28;45522;-74
2023/04/28 10:36:53;;;;;;;;;8.33;8.33;;;;;38.17;30.01;99950.09;5078101;28;45293;-73
2023/04/28 10:39:19;;;;;;;;;9.67;9.33;;;;;38.36;29.96;99951.88;5059285;28;45613;-73
2023/04/28 10:41:48;;;;;;;;;7.67;7.67;;;;;38.59;29.81;99944.25;5059394;28;47146;-72
2023/04/28 10:44:43;;;;;;;;;9.33;9.33;;;;;38.78;29.87;99959.69;5059654;28;45469;-74
2023/04/28 10:47:09;;;;;;;;;13.00;10.67;;;;;38.80;29.73;99957.66;5055043;28;45581;-75
2023/04/28 10:49:53;;;;;;;;;11.00;11.00;;;;;38.72;30.01;99960.25;5059465;28;45665;-73
2023/04/28 10:52:37;;;;;;;;;9.67;9.67;;;;;38.68;30.61;99959.72;5076820;28;46091;-73
2023/04/28 10:55:25;;;;;;;;;10.00;10.00;;;;;38.65;30.06;99954.56;5058669;28;45382;-84
2023/04/28 10:58:16;;;;;;;;;9.00;9.00;;;;;38.65;30.70;99954.56;5077453;28;45311;-72
2023/04/28 11:00:44;;;;;;;;;11.67;11.67;;;;;38.23;31.17;99952.22;5077605;28;45576;-76
2023/04/28 11:03:41;;;;;;;;;10.67;10.00;;;;;37.89;31.24;99935.47;5058778;28;46309;-72
2023/04/28 11:06:31;;;;;;;;;9.67;9.67;;;;;37.94;31.37;99936.75;5059061;28;45465;-72
2023/04/28 11:09:32;;;;;;;;;12.00;11.00;;;;;37.69;31.55;99929.16;5059414;28;45342;-72
2023/04/28 11:12:05;;;;;;;;;12.67;12.00;;;;;37.70;32.01;99930.88;5077522;28;45516;-72
2023/04/28 11:14:35;;;;;;;;;10.33;9.33;;;;;37.17;32.85;99913.91;5058752;28;45385;-72
2023/04/28 11:17:10;;;;;;;;;10.00;10.00;;;;;37.22;32.45;99927.09;5077192;28;45517;-72
2023/04/28 11:19:37;;;;;;;;;11.00;10.00;;;;;36.92;32.70;99926.13;5075730;28;45516;-72
2023/04/28 11:22:18;;;;;;;;;9.67;9.00;;;;;36.62;33.16;99925.13;5076259;28;45264;-77
2023/04/28 11:24:58;;;;;;;;;9.33;8.67;;;;;36.10;33.93;99904.41;5059295;28;47023;-73